Main page
METAR-TAF:

METAR-TAF

Airports :

Andorra–La Seu d'Urgell Airport

La Seu d'Urgell, Spain

latitude: 42-20-29N, longitude: 001-24-17E, elevation: 802 m

Current weather observation

The report was made 2 hours and 39 minutes ago, at 17:00 UTC
Wind 7 kt from the Southwest, varying between South/Southwest and West
Temperature 3°C
Humidity 65%
Pressure 1023 hPa
Visibility 10 km or more
no clouds below 1500 m and no cumulonimbus

METAR: LESU 211700Z 23007KT 200V270 CAVOK 03/M03 Q1023

Time: 20:39 (19:39 UTC)

Forecast

The report was made 5 hours and 39 minutes ago, at 14:00 UTC
Forecast valid from 21 at 15 UTC to 22 at 15 UTC
Wind 3 kt from variable directions
Visibility 10 km or more
Few clouds at a height of 4500 ft

TAF: LESU 211400Z 2115/2215 VRB03KT 9999 FEW045 TX13/2213Z TNM05/2206Z

Weather observations and forecasts of more than 4000 airports (METAR and TAF reports).

The available stations are represented by yellow and red dots on the map.

Hover mouse over dot to see the name of the station.

Then click to see weather observations and forecasts.

To change the map : click on the green buttons with a black cross to zoom in, on the green button with a dash to zoom out, or on the green arrows for adjacent maps.


METAR-TAF: